Time;durP1;ratioP1;P1;durP2;ratioP2;P2;SDS_P1;SDS_P2;PMS_P1;PMS_P2;Temp;Humidity;BMP_temperature;BMP_pressure;BME280_temperature;BME280_humidity;BME280_pressure;Samples;Min_cycle;Max_cycle;Signal;HPM_P1;HPM_P2
2024/03/31 00:00:07;;;;;;;;;;;;;;;5.09;100.00;97962.06;4853244;29;19936;-86
2024/03/31 00:02:32;;;;;;;;;;;;;;;5.09;100.00;97948.94;4868227;29;19931;-82
2024/03/31 00:04:58;;;;;;;;;;;;;;;5.12;100.00;97957.56;4851662;29;19920;-82
2024/03/31 00:07:23;;;;;;;;;;;;;;;5.12;100.00;97947.06;4868162;29;19930;-81
2024/03/31 00:09:48;;;;;;;;;;;;;;;5.11;100.00;97948.03;4868644;29;20283;-82
2024/03/31 00:12:14;;;;;;;;;;;;;;;5.11;100.00;97961.97;4867324;29;20347;-84
2024/03/31 00:14:39;;;;;;;;;;;;;;;5.05;100.00;97963.13;4869364;29;19986;-85
2024/03/31 00:17:05;;;;;;;;;;;;;;;5.08;100.00;97964.75;4868724;29;19926;-86
2024/03/31 00:19:30;;;;;;;;;;;;;;;5.13;100.00;97964.53;4869669;29;19928;-86
2024/03/31 00:21:55;;;;;;;;;;;;;;;5.09;100.00;97971.72;4872454;29;19919;-84
2024/03/31 00:24:21;;;;;;;;;;;;;;;5.08;100.00;97970.00;4855206;29;19931;-83
2024/03/31 00:26:46;;;;;;;;;;;;;;;5.06;100.00;97966.63;4870555;29;20829;-83
2024/03/31 00:29:11;;;;;;;;;;;;;;;5.06;100.00;97964.00;4871450;29;19928;-80
2024/03/31 00:31:39;;;;;;;;;;;;;;;5.13;100.00;97954.88;4871974;29;20006;-89
2024/03/31 00:34:04;;;;;;;;;;;;;;;5.12;100.00;97957.56;4871525;29;19916;-82
2024/03/31 00:36:30;;;;;;;;;;;;;;;5.07;100.00;97960.44;4871780;29;19930;-84
2024/03/31 00:38:55;;;;;;;;;;;;;;;5.14;100.00;97960.97;4871811;29;19980;-81
2024/03/31 00:41:20;;;;;;;;;;;;;;;5.08;100.00;97957.72;4854764;29;19928;-83
2024/03/31 00:43:45;;;;;;;;;;;;;;;5.11;100.00;97953.28;4870239;29;19931;-83
2024/03/31 00:46:10;;;;;;;;;;;;;;;5.10;100.00;97955.03;4871442;29;20375;-81
2024/03/31 00:48:36;;;;;;;;;;;;;;;5.12;100.00;97966.28;4871275;29;20486;-85
2024/03/31 00:51:01;;;;;;;;;;;;;;;5.14;100.00;97966.22;4871352;29;20406;-84
2024/03/31 00:53:27;;;;;;;;;;;;;;;5.07;100.00;97966.53;4871469;29;19946;-83
2024/03/31 00:55:52;;;;;;;;;;;;;;;5.08;100.00;97962.97;4871582;29;19968;-85
2024/03/31 00:58:17;;;;;;;;;;;;;;;5.12;100.00;97965.44;4869954;29;20476;-86
2024/03/31 01:00:43;;;;;;;;;;;;;;;5.15;100.00;97957.44;4855257;29;19942;-82
2024/03/31 01:03:08;;;;;;;;;;;;;;;5.16;100.00;97951.25;4870956;29;19975;-82
2024/03/31 01:05:34;;;;;;;;;;;;;;;5.12;100.00;97953.16;4870913;29;19920;-83
2024/03/31 01:07:59;;;;;;;;;;;;;;;5.17;100.00;97948.56;4854871;29;20018;-82
2024/03/31 01:10:25;;;;;;;;;;;;;;;5.13;100.00;97941.75;4871185;29;19935;-82
2024/03/31 01:12:50;;;;;;;;;;;;;;;5.21;100.00;97936.94;4868940;29;19927;-83
2024/03/31 01:15:15;;;;;;;;;;;;;;;5.25;100.00;97907.00;4870724;29;19992;-82
2024/03/31 01:17:41;;;;;;;;;;;;;;;5.20;100.00;97902.91;4871275;29;19971;-82
2024/03/31 01:20:06;;;;;;;;;;;;;;;5.23;100.00;97924.63;4854303;29;20333;-82
2024/03/31 01:22:33;;;;;;;;;;;;;;;5.16;100.00;97917.13;4853848;29;19957;-82
2024/03/31 01:24:58;;;;;;;;;;;;;;;5.18;100.00;97920.50;4854099;29;19927;-82
2024/03/31 01:27:24;;;;;;;;;;;;;;;5.18;100.00;97912.63;4853226;29;19924;-82
2024/03/31 01:29:49;;;;;;;;;;;;;;;5.24;100.00;97900.03;4870921;29;19968;-82
2024/03/31 01:32:15;;;;;;;;;;;;;;;5.25;100.00;97904.38;4870090;29;20284;-82
2024/03/31 01:34:41;;;;;;;;;;;;;;;5.26;100.00;97895.56;4854012;29;19931;-82
2024/03/31 01:37:07;;;;;;;;;;;;;;;5.23;100.00;97903.59;4870646;29;19944;-82
2024/03/31 01:39:32;;;;;;;;;;;;;;;5.26;100.00;97898.19;4869394;29;19924;-83
2024/03/31 07:32:19;;;;;;;;;;;;;;;5.13;100.00;97681.00;5045126;23;19942;-83
2024/03/31 07:34:44;;;;;;;;;;;;;;;5.16;100.00;97686.91;4891448;29;19927;-81
2024/03/31 07:37:09;;;;;;;;;;;;;;;5.15;100.00;97679.97;4891970;29;20291;-80
2024/03/31 07:39:35;;;;;;;;;;;;;;;5.18;100.00;97666.66;4891261;29;19942;-78
2024/03/31 07:42:01;;;;;;;;;;;;;;;5.18;100.00;97664.03;4889887;29;20059;-81
2024/03/31 07:44:26;;;;;;;;;;;;;;;5.20;100.00;97664.81;4891498;29;19920;-88
2024/03/31 07:46:51;;;;;;;;;;;;;;;5.25;100.00;97668.03;4890062;29;19967;-80
2024/03/31 07:49:17;;;;;;;;;;;;;;;5.17;100.00;97662.38;4891334;29;19924;-81
2024/03/31 07:51:42;;;;;;;;;;;;;;;5.15;100.00;97661.59;4891250;29;19924;-81
2024/03/31 07:54:07;;;;;;;;;;;;;;;5.18;100.00;97671.06;4889789;29;20410;-80
2024/03/31 07:56:32;;;;;;;;;;;;;;;5.21;100.00;97678.78;4891408;29;20256;-80
2024/03/31 07:58:58;;;;;;;;;;;;;;;5.20;100.00;97677.94;4891011;29;19919;-81
2024/03/31 08:01:23;;;;;;;;;;;;;;;5.21;100.00;97671.75;4890077;29;19930;-81
2024/03/31 08:03:48;;;;;;;;;;;;;;;5.11;100.00;97683.69;4890867;29;20387;-80
2024/03/31 08:06:13;;;;;;;;;;;;;;;5.11;100.00;97680.22;4890843;29;20014;-81
2024/03/31 08:08:39;;;;;;;;;;;;;;;5.11;100.00;97691.56;4889634;29;19923;-78
2024/03/31 08:11:04;;;;;;;;;;;;;;;5.13;100.00;97696.75;4890939;29;19984;-81
2024/03/31 08:13:29;;;;;;;;;;;;;;;5.07;100.00;97697.91;4889321;29;19975;-82
2024/03/31 08:15:54;;;;;;;;;;;;;;;5.06;100.00;97697.06;4889295;29;19920;-81
2024/03/31 08:18:20;;;;;;;;;;;;;;;5.12;100.00;97698.50;4889659;29;20014;-81
2024/03/31 08:20:47;;;;;;;;;;;;;;;5.13;100.00;97700.19;4890919;29;20287;-82
2024/03/31 08:23:12;;;;;;;;;;;;;;;5.15;100.00;97700.97;4890333;29;19926;-82
2024/03/31 08:25:37;;;;;;;;;;;;;;;5.09;100.00;97707.41;4890498;29;20268;-82
2024/03/31 08:28:04;;;;;;;;;;;;;;;5.11;100.00;97696.81;4890814;29;20133;-81
2024/03/31 08:30:29;;;;;;;;;;;;;;;5.05;100.00;97700.59;4889266;29;19967;-80
2024/03/31 08:32:54;;;;;;;;;;;;;;;5.02;100.00;97689.44;4890035;29;19923;-81
2024/03/31 08:35:19;;;;;;;;;;;;;;;5.01;100.00;97695.59;4889169;29;19919;-81
2024/03/31 08:37:46;;;;;;;;;;;;;;;4.96;100.00;97695.84;4890568;29;20013;-81
2024/03/31 08:40:11;;;;;;;;;;;;;;;4.93;100.00;97687.28;4890289;29;20018;-81
2024/03/31 08:42:36;;;;;;;;;;;;;;;4.96;100.00;97695.00;4890421;29;20010;-84
2024/03/31 08:45:02;;;;;;;;;;;;;;;4.96;100.00;97695.84;4888730;29;19920;-81
2024/03/31 08:47:31;;;;;;;;;;;;;;;4.94;100.00;97684.59;4888777;29;19928;-81
2024/03/31 08:49:58;;;;;;;;;;;;;;;4.95;100.00;97688.09;4889798;29;19990;-81
2024/03/31 08:52:24;;;;;;;;;;;;;;;5.00;100.00;97686.06;4889788;29;20010;-82
2024/03/31 08:54:50;;;;;;;;;;;;;;;5.03;100.00;97694.59;4889809;29;20063;-81
2024/03/31 08:57:15;;;;;;;;;;;;;;;5.07;100.00;97697.91;4888941;29;20371;-81
2024/03/31 08:59:40;;;;;;;;;;;;;;;4.94;100.00;97699.50;4889915;29;19939;-85
2024/03/31 09:02:10;;;;;;;;;;;;;;;4.97;100.00;97704.59;4888377;29;20018;-81
2024/03/31 09:04:35;;;;;;;;;;;;;;;5.00;100.00;97699.19;4889832;29;19920;-81
2024/03/31 09:07:00;;;;;;;;;;;;;;;5.04;100.00;97695.44;4889622;29;19920;-84
2024/03/31 09:09:25;;;;;;;;;;;;;;;5.04;100.00;97692.81;4890238;29;20283;-81
2024/03/31 09:11:51;;;;;;;;;;;;;;;5.03;100.00;97697.22;4889805;29;19920;-81
2024/03/31 09:14:17;;;;;;;;;;;;;;;5.03;100.00;97696.41;4889325;29;19920;-81
2024/03/31 09:16:43;;;;;;;;;;;;;;;5.03;100.00;97701.66;4888529;29;19968;-81
2024/03/31 09:19:09;;;;;;;;;;;;;;;5.06;100.00;97707.56;4889731;29;19927;-81
2024/03/31 09:21:42;;;;;;;;;;;;;;;5.01;100.00;97703.47;4889519;29;20483;-81
2024/03/31 09:24:07;;;;;;;;;;;;;;;5.08;100.00;97716.19;4889236;29;19930;-81
2024/03/31 09:26:33;;;;;;;;;;;;;;;5.09;100.00;97712.66;4889552;29;19946;-81
2024/03/31 09:28:58;;;;;;;;;;;;;;;5.03;100.00;97714.78;4889105;29;19923;-81
2024/03/31 09:31:23;;;;;;;;;;;;;;;5.02;100.00;97715.69;4879156;29;19944;-81
2024/03/31 09:33:48;;;;;;;;;;;;;;;5.05;100.00;97710.28;4889090;29;20374;-81
2024/03/31 09:36:13;;;;;;;;;;;;;;;4.95;100.00;97714.34;4889538;29;20282;-81
2024/03/31 09:38:39;;;;;;;;;;;;;;;4.96;100.00;97716.00;4889580;29;19919;-81
2024/03/31 09:41:04;;;;;;;;;;;;;;;5.00;100.00;97709.69;4889125;29;19927;-81
2024/03/31 09:43:29;;;;;;;;;;;;;;;4.99;100.00;97710.59;4889135;29;19924;-81
2024/03/31 09:45:55;;;;;;;;;;;;;;;4.96;100.00;97708.13;4887825;29;20022;-81
2024/03/31 09:48:25;;;;;;;;;;;;;;;4.97;100.00;97712.47;4889225;29;20299;-82
2024/03/31 09:50:58;;;;;;;;;;;;;;;5.02;100.00;97706.03;4888928;29;19924;-81
2024/03/31 09:53:27;;;;;;;;;;;;;;;4.90;100.00;97686.53;4871667;29;20477;-81
2024/03/31 12:58:40;;;;;;;;;;;;;;;5.24;100.00;97553.44;5692024;23;20394;-82
2024/03/31 13:01:06;;;;;;;;;;;;;;;5.28;100.00;97570.72;4889814;29;20335;-86
2024/03/31 13:03:33;;;;;;;;;;;;;;;5.27;100.00;97574.25;4890300;29;19923;-84
2024/03/31 13:05:58;;;;;;;;;;;;;;;5.33;100.00;97574.84;4889780;29;19920;-80
2024/03/31 13:08:24;;;;;;;;;;;;;;;5.31;100.00;97580.19;4889479;29;20446;-81
2024/03/31 13:10:49;;;;;;;;;;;;;;;5.35;100.00;97571.19;4889785;29;19934;-80
2024/03/31 13:13:14;;;;;;;;;;;;;;;5.32;100.00;97565.28;4888343;29;20364;-80
2024/03/31 13:15:40;;;;;;;;;;;;;;;5.32;100.00;97581.88;4889955;29;19927;-81
2024/03/31 13:18:06;;;;;;;;;;;;;;;5.27;100.00;97576.88;4889998;29;19931;-80
2024/03/31 13:20:32;;;;;;;;;;;;;;;5.32;100.00;97579.25;4889752;29;19920;-80
2024/03/31 13:22:57;;;;;;;;;;;;;;;5.29;100.00;97582.06;4889433;29;20386;-81
2024/03/31 13:25:22;;;;;;;;;;;;;;;5.31;100.00;97577.56;4889751;29;20390;-85
2024/03/31 13:27:47;;;;;;;;;;;;;;;5.38;100.00;97571.03;4885714;29;19980;-81
2024/03/31 13:30:13;;;;;;;;;;;;;;;5.31;100.00;97587.22;4888212;29;19919;-88
2024/03/31 13:32:38;;;;;;;;;;;;;;;5.33;100.00;97582.72;4895978;29;19923;-79
2024/03/31 13:35:03;;;;;;;;;;;;;;;5.37;100.00;97587.72;4889090;29;19919;-80
2024/03/31 13:37:29;;;;;;;;;;;;;;;5.33;100.00;97590.59;4889052;29;19923;-81
2024/03/31 13:39:54;;;;;;;;;;;;;;;5.34;100.00;97592.31;4887918;29;20006;-81
2024/03/31 13:42:19;;;;;;;;;;;;;;;5.31;100.00;97600.34;4889329;29;19926;-80
2024/03/31 13:44:44;;;;;;;;;;;;;;;5.37;100.00;97607.88;4901994;29;19919;-81
2024/03/31 13:47:10;;;;;;;;;;;;;;;5.38;100.00;97607.81;4888819;29;20994;-80
2024/03/31 13:49:35;;;;;;;;;;;;;;;5.41;100.00;97615.50;4889396;29;19926;-81
2024/03/31 13:52:02;;;;;;;;;;;;;;;5.41;100.00;97619.94;4888056;29;22068;-80
2024/03/31 13:54:28;;;;;;;;;;;;;;;5.41;100.00;97622.56;4887547;29;19979;-80
2024/03/31 13:56:53;;;;;;;;;;;;;;;5.41;100.00;97625.19;4895124;29;20014;-80
2024/03/31 13:59:18;;;;;;;;;;;;;;;5.37;100.00;97626.28;4898218;29;19930;-81
2024/03/31 14:01:43;;;;;;;;;;;;;;;5.40;100.00;97631.34;4926441;29;19970;-81
2024/03/31 14:04:09;;;;;;;;;;;;;;;5.42;100.00;97634.72;4909482;29;20287;-81
2024/03/31 14:06:35;;;;;;;;;;;;;;;5.44;100.00;97633.72;4926422;29;19931;-82
2024/03/31 14:09:00;;;;;;;;;;;;;;;5.39;100.00;97629.66;4908742;29;19962;-82
2024/03/31 14:11:25;;;;;;;;;;;;;;;5.43;100.00;97631.19;4909271;29;20322;-81
2024/03/31 14:13:50;;;;;;;;;;;;;;;5.40;100.00;97626.09;4907949;29;20018;-80
2024/03/31 14:16:16;;;;;;;;;;;;;;;5.43;100.00;97604.91;4908990;29;19926;-81
2024/03/31 14:18:41;;;;;;;;;;;;;;;5.54;100.00;97614.81;4926179;29;19919;-83
2024/03/31 14:21:06;;;;;;;;;;;;;;;5.55;100.00;97620.00;4926202;29;19918;-87
2024/03/31 14:23:31;;;;;;;;;;;;;;;5.50;100.00;97601.00;4909034;29;19919;-85
2024/03/31 14:25:56;;;;;;;;;;;;;;;5.42;100.00;97567.28;4925928;29;19919;-88
2024/03/31 14:28:22;;;;;;;;;;;;;;;5.52;100.00;97556.25;4924396;29;19962;-83
2024/03/31 14:30:48;;;;;;;;;;;;;;;5.50;100.00;97553.72;4926207;29;20378;-84
2024/03/31 14:33:13;;;;;;;;;;;;;;;5.48;100.00;97549.50;4926077;29;19922;-84
2024/03/31 14:35:38;;;;;;;;;;;;;;;5.46;100.00;97546.97;4908675;29;19923;-83
2024/03/31 14:38:05;;;;;;;;;;;;;;;5.49;100.00;97549.41;4925441;29;20294;-82
2024/03/31 14:40:30;;;;;;;;;;;;;;;5.38;100.00;97547.41;4925386;29;19915;-83
2024/03/31 14:42:55;;;;;;;;;;;;;;;5.39;100.00;97541.22;4906756;29;20434;-85
2024/03/31 14:45:20;;;;;;;;;;;;;;;5.43;100.00;97545.34;4926121;29;19958;-84
2024/03/31 14:47:46;;;;;;;;;;;;;;;5.38;100.00;97543.94;4925602;29;19970;-84
2024/03/31 14:50:11;;;;;;;;;;;;;;;5.37;100.00;97550.09;4925282;29;19951;-84
2024/03/31 14:52:36;;;;;;;;;;;;;;;5.45;100.00;97551.34;4925836;29;19975;-84
2024/03/31 14:55:02;;;;;;;;;;;;;;;5.41;100.00;97546.38;4908888;29;19927;-84
2024/03/31 14:57:30;;;;;;;;;;;;;;;5.42;100.00;97548.06;4908278;29;20017;-84
2024/03/31 14:59:55;;;;;;;;;;;;;;;5.53;100.00;97552.69;4924404;29;19930;-86
2024/03/31 15:02:21;;;;;;;;;;;;;;;5.55;100.00;97551.69;4925280;29;19923;-86
2024/03/31 15:04:46;;;;;;;;;;;;;;;5.58;100.00;97545.38;4908314;29;19918;-84
2024/03/31 15:07:11;;;;;;;;;;;;;;;5.54;100.00;97555.25;4908812;29;19923;-87
2024/03/31 15:09:37;;;;;;;;;;;;;;;5.53;100.00;97550.06;4925548;29;19919;-87
2024/03/31 15:12:03;;;;;;;;;;;;;;;5.58;100.00;97550.66;4925038;29;19946;-86
2024/03/31 15:14:28;;;;;;;;;;;;;;;5.57;100.00;97546.34;4924091;29;20263;-85
2024/03/31 15:16:56;;;;;;;;;;;;;;;5.51;100.00;97533.56;4925046;29;19930;-84
2024/03/31 15:19:22;;;;;;;;;;;;;;;5.50;100.00;97532.69;4908305;29;20408;-86
2024/03/31 15:21:47;;;;;;;;;;;;;;;5.49;100.00;97543.28;4925103;29;19954;-85
2024/03/31 15:24:13;;;;;;;;;;;;;;;5.50;100.00;97545.81;4924705;29;19974;-81
2024/03/31 15:26:38;;;;;;;;;;;;;;;5.44;100.00;97543.56;4924868;29;19965;-88
2024/03/31 15:29:03;;;;;;;;;;;;;;;5.45;100.00;97545.25;4923988;29;19919;-86
2024/03/31 15:31:31;;;;;;;;;;;;;;;5.47;100.00;97543.38;4925155;29;19919;-85
2024/03/31 15:33:56;;;;;;;;;;;;;;;5.46;100.00;97541.72;4925049;29;20017;-85
2024/03/31 15:36:21;;;;;;;;;;;;;;;5.51;100.00;97544.06;4924888;29;20054;-89
2024/03/31 15:38:49;;;;;;;;;;;;;;;9.66;100.00;97551.91;4924948;29;19919;-89
2024/03/31 15:41:14;;;;;;;;;;;;;;;6.74;100.00;97557.72;4924578;29;20391;-88
2024/03/31 15:43:40;;;;;;;;;;;;;;;6.06;100.00;97589.94;4923615;29;20042;-88
2024/03/31 15:46:05;;;;;;;;;;;;;;;5.89;100.00;97601.41;4925285;29;19923;-87
2024/03/31 15:48:30;;;;;;;;;;;;;;;5.94;100.00;97604.63;4924924;29;20013;-85
2024/03/31 15:50:56;;;;;;;;;;;;;;;6.02;100.00;97602.44;4926559;29;19931;-85
2024/03/31 15:53:21;;;;;;;;;;;;;;;5.91;100.00;97562.75;4911524;29;19926;-86
2024/03/31 15:55:47;;;;;;;;;;;;;;;5.79;100.00;97527.50;4910955;29;20310;-89
2024/03/31 15:58:16;;;;;;;;;;;;;;;5.74;100.00;97542.72;4910205;29;19919;-83
2024/03/31 16:00:42;;;;;;;;;;;;;;;5.81;100.00;97544.06;4928604;29;19930;-86
2024/03/31 16:03:08;;;;;;;;;;;;;;;5.78;100.00;97504.81;4912076;29;19931;-84
2024/03/31 16:05:33;;;;;;;;;;;;;;;5.81;100.00;97547.53;4928671;29;20327;-82
2024/03/31 16:07:58;;;;;;;;;;;;;;;5.80;100.00;97550.25;4910389;29;19931;-83
2024/03/31 16:10:24;;;;;;;;;;;;;;;6.55;100.00;97569.38;4928297;29;19919;-81
2024/03/31 16:12:49;;;;;;;;;;;;;;;6.91;100.00;97569.84;4911551;29;20005;-84
2024/03/31 16:15:14;;;;;;;;;;;;;;;6.35;100.00;97554.84;4910650;29;19919;-86
2024/03/31 16:17:41;;;;;;;;;;;;;;;6.13;100.00;97536.06;4928424;29;19929;-84
2024/03/31 16:20:10;;;;;;;;;;;;;;;5.97;100.00;97534.34;4887824;29;19927;-84
2024/03/31 16:22:38;;;;;;;;;;;;;;;5.88;100.00;97526.97;4894937;29;19920;-82
2024/03/31 16:25:03;;;;;;;;;;;;;;;5.89;100.00;97520.78;4888199;29;20443;-85
2024/03/31 16:27:29;;;;;;;;;;;;;;;5.87;100.00;97514.78;4888577;29;20010;-83
2024/03/31 16:29:54;;;;;;;;;;;;;;;5.82;100.00;97516.81;4886885;29;20280;-83
2024/03/31 16:32:19;;;;;;;;;;;;;;;5.79;100.00;97528.38;4888533;29;19959;-85
2024/03/31 16:34:44;;;;;;;;;;;;;;;5.80;100.00;97527.41;4887375;29;20018;-83
2024/03/31 16:37:10;;;;;;;;;;;;;;;5.81;100.00;97530.91;4887591;29;19924;-81
2024/03/31 16:39:35;;;;;;;;;;;;;;;5.80;100.00;97523.97;4888671;29;19927;-84
2024/03/31 16:42:01;;;;;;;;;;;;;;;5.78;100.00;97525.84;4888553;29;20028;-83
2024/03/31 16:44:26;;;;;;;;;;;;;;;5.80;100.00;97514.28;4902633;29;20394;-82
2024/03/31 16:46:51;;;;;;;;;;;;;;;5.74;100.00;97513.81;4927649;29;19927;-82
2024/03/31 16:49:17;;;;;;;;;;;;;;;5.69;100.00;97511.44;4927601;29;19923;-84
2024/03/31 16:51:42;;;;;;;;;;;;;;;5.70;100.00;97517.56;4928047;29;20289;-82
2024/03/31 16:54:07;;;;;;;;;;;;;;;5.68;100.00;97519.41;4928046;29;19923;-80
2024/03/31 16:56:33;;;;;;;;;;;;;;;5.61;100.00;97527.66;4927805;29;19927;-81
2024/03/31 16:58:59;;;;;;;;;;;;;;;5.71;100.00;97506.97;4926131;29;19938;-81
2024/03/31 17:01:24;;;;;;;;;;;;;;;5.66;100.00;97497.66;4911161;29;19923;-83
2024/03/31 17:03:50;;;;;;;;;;;;;;;5.65;100.00;97515.22;4927248;29;19916;-80
2024/03/31 17:06:15;;;;;;;;;;;;;;;5.64;100.00;97524.84;4927246;29;20018;-82
2024/03/31 17:08:40;;;;;;;;;;;;;;;5.64;100.00;97530.09;4927763;29;19923;-82
2024/03/31 17:11:05;;;;;;;;;;;;;;;5.71;100.00;97527.13;4927351;29;19970;-82
2024/03/31 17:13:39;;;;;;;;;;;;;;;5.70;100.00;97507.06;4925861;29;20318;-85
2024/03/31 17:16:10;;;;;;;;;;;;;;;5.66;100.00;97516.03;4909911;29;19923;-85
2024/03/31 17:18:35;;;;;;;;;;;;;;;5.67;100.00;97528.25;4933695;29;19974;-81
2024/03/31 17:21:01;;;;;;;;;;;;;;;5.61;100.00;97527.66;4927607;29;19919;-82
2024/03/31 17:23:27;;;;;;;;;;;;;;;5.59;100.00;97534.78;4927110;29;19971;-85
2024/03/31 17:25:56;;;;;;;;;;;;;;;5.61;100.00;97525.03;4927038;29;19919;-84
2024/03/31 17:28:21;;;;;;;;;;;;;;;5.58;100.00;97521.75;4926619;29;19919;-89
2024/03/31 17:30:47;;;;;;;;;;;;;;;5.55;100.00;97535.06;4926984;29;19923;-83
2024/03/31 17:33:12;;;;;;;;;;;;;;;5.58;100.00;97525.22;4926943;29;19967;-84
2024/03/31 17:35:37;;;;;;;;;;;;;;;5.55;100.00;97540.31;4926845;29;19919;-84
2024/03/31 17:38:02;;;;;;;;;;;;;;;5.56;100.00;97537.59;4927819;29;19925;-82
2024/03/31 17:40:28;;;;;;;;;;;;;;;5.52;100.00;97522.97;4926785;29;20009;-82
2024/03/31 17:42:53;;;;;;;;;;;;;;;5.53;100.00;97531.69;4925304;29;19923;-83
2024/03/31 17:45:21;;;;;;;;;;;;;;;5.46;100.00;97520.69;4926776;29;20276;-82
2024/03/31 17:47:46;;;;;;;;;;;;;;;5.50;100.00;97579.13;4926693;29;20006;-83
2024/03/31 17:50:12;;;;;;;;;;;;;;;5.47;100.00;97648.44;4926766;29;20009;-83
2024/03/31 17:52:37;;;;;;;;;;;;;;;5.45;100.00;97701.06;4909848;29;19954;-84
2024/03/31 17:55:02;;;;;;;;;;;;;;;5.59;100.00;97655.66;4926460;29;20311;-82
2024/03/31 17:57:28;;;;;;;;;;;;;;;5.48;100.00;97655.41;4926332;29;20345;-82
2024/03/31 17:59:58;;;;;;;;;;;;;;;5.59;100.00;97660.91;4925484;29;20335;-91
2024/03/31 18:02:24;;;;;;;;;;;;;;;5.62;100.00;97652.00;4933987;29;20378;-80
2024/03/31 18:04:52;;;;;;;;;;;;;;;5.56;100.00;97655.81;4926277;29;19950;-84
2024/03/31 18:07:17;;;;;;;;;;;;;;;5.51;100.00;97660.50;4926104;29;19923;-86
2024/03/31 18:09:42;;;;;;;;;;;;;;;5.53;100.00;97666.50;4926371;29;19930;-89
2024/03/31 18:12:08;;;;;;;;;;;;;;;5.53;100.00;97665.66;4909580;29;19927;-88
2024/03/31 18:14:33;;;;;;;;;;;;;;;5.45;100.00;97660.81;4925532;29;19923;-82
2024/03/31 18:16:58;;;;;;;;;;;;;;;5.43;100.00;97660.91;4909627;29;19969;-83
2024/03/31 18:19:24;;;;;;;;;;;;;;;5.48;100.00;97655.41;4926210;29;19919;-81
2024/03/31 18:21:49;;;;;;;;;;;;;;;5.43;100.00;97646.94;4926422;29;20290;-86
2024/03/31 18:24:15;;;;;;;;;;;;;;;5.42;100.00;97650.50;4926066;29;19919;-80
2024/03/31 18:26:41;;;;;;;;;;;;;;;5.43;100.00;97665.31;4924649;29;19923;-88
2024/03/31 18:29:07;;;;;;;;;;;;;;;5.43;100.00;97686.34;4924788;29;19923;-81
2024/03/31 18:31:32;;;;;;;;;;;;;;;5.41;100.00;97688.22;4909454;29;19919;-83
2024/03/31 18:33:57;;;;;;;;;;;;;;;5.39;100.00;97675.16;4925654;29;19919;-83
2024/03/31 18:36:23;;;;;;;;;;;;;;;5.44;100.00;97653.88;4925437;29;19929;-83
2024/03/31 18:38:48;;;;;;;;;;;;;;;5.46;100.00;97649.41;4926227;29;20639;-92
2024/03/31 18:41:15;;;;;;;;;;;;;;;5.40;100.00;97663.72;4908242;29;19970;-83
2024/03/31 18:43:41;;;;;;;;;;;;;;;5.43;100.00;97673.22;4923703;29;19923;-83
2024/03/31 18:46:08;;;;;;;;;;;;;;;5.43;100.00;97689.81;4923567;29;20311;-85
2024/03/31 18:48:34;;;;;;;;;;;;;;;5.40;100.00;97689.97;4909985;29;20014;-81
2024/03/31 18:51:07;;;;;;;;;;;;;;;5.45;100.00;97700.22;4926048;29;20422;-90
2024/03/31 18:53:35;;;;;;;;;;;;;;;5.45;100.00;97697.59;4908741;29;20013;-92
2024/03/31 18:56:13;;;;;;;;;;;;;;;5.42;100.00;97687.25;4907086;29;19926;-92
2024/03/31 18:58:38;;;;;;;;;;;;;;;5.40;100.00;97689.97;4906254;29;19931;-83
2024/03/31 19:01:07;;;;;;;;;;;;;;;5.42;100.00;97693.34;4923663;29;20316;-79
2024/03/31 19:03:33;;;;;;;;;;;;;;;5.38;100.00;97693.63;4923900;29;19927;-88
2024/03/31 19:05:58;;;;;;;;;;;;;;;5.38;100.00;97685.75;4908719;29;19974;-88
2024/03/31 19:08:26;;;;;;;;;;;;;;;5.40;100.00;97683.88;4925285;29;19924;-92
2024/03/31 19:10:51;;;;;;;;;;;;;;;5.37;100.00;97684.88;4905995;29;19927;-88
2024/03/31 19:13:16;;;;;;;;;;;;;;;5.39;100.00;97698.81;4924581;29;20330;-90
2024/03/31 19:15:41;;;;;;;;;;;;;;;5.37;100.00;97686.69;4907737;29;19923;-85
2024/03/31 19:18:07;;;;;;;;;;;;;;;5.34;100.00;97684.22;4927628;29;19931;-86
2024/03/31 19:20:32;;;;;;;;;;;;;;;5.34;100.00;97678.97;4934320;29;19954;-84
2024/03/31 19:22:57;;;;;;;;;;;;;;;5.35;100.00;97683.28;4932988;29;19930;-81
2024/03/31 19:25:23;;;;;;;;;;;;;;;5.34;100.00;97699.97;4931069;29;19922;-85
2024/03/31 19:27:48;;;;;;;;;;;;;;;5.32;100.00;97699.22;4933413;29;19922;-85
2024/03/31 19:30:13;;;;;;;;;;;;;;;5.33;100.00;97686.00;4934402;29;19945;-88
2024/03/31 19:32:38;;;;;;;;;;;;;;;5.38;100.00;97691.00;4933091;29;20022;-83
2024/03/31 19:35:04;;;;;;;;;;;;;;;5.43;100.00;97681.09;4929035;29;20386;-87
2024/03/31 19:37:32;;;;;;;;;;;;;;;5.50;100.00;97685.06;4933164;29;19942;-87
2024/03/31 19:39:57;;;;;;;;;;;;;;;5.41;100.00;97685.59;4932668;29;19958;-87
2024/03/31 19:42:23;;;;;;;;;;;;;;;5.40;100.00;97694.38;4913916;29;19958;-82
2024/03/31 19:44:49;;;;;;;;;;;;;;;5.52;100.00;97688.47;4915068;29;19927;-87
2024/03/31 19:47:21;;;;;;;;;;;;;;;5.52;100.00;97683.22;4931064;29;19984;-87
2024/03/31 19:49:49;;;;;;;;;;;;;;;5.54;100.00;97686.59;4932823;29;20371;-86
2024/03/31 19:52:17;;;;;;;;;;;;;;;5.61;100.00;97684.47;4930821;29;19930;-87
2024/03/31 19:54:42;;;;;;;;;;;;;;;5.63;100.00;97690.47;4933236;29;20033;-80
2024/03/31 19:57:08;;;;;;;;;;;;;;;5.61;100.00;97684.47;4933501;29;20074;-85
2024/03/31 19:59:33;;;;;;;;;;;;;;;5.55;100.00;97676.91;4930204;29;19970;-81
2024/03/31 20:01:58;;;;;;;;;;;;;;;5.60;100.00;97677.50;4933521;29;19927;-82
2024/03/31 20:04:24;;;;;;;;;;;;;;;5.61;100.00;97672.16;4933612;29;20295;-86
2024/03/31 20:06:50;;;;;;;;;;;;;;;5.63;100.00;97678.19;4932404;29;19927;-93
2024/03/31 20:09:18;;;;;;;;;;;;;;;5.66;100.00;97678.94;4932496;29;19933;-83
2024/03/31 20:11:44;;;;;;;;;;;;;;;5.78;100.00;97683.53;4916697;29;19926;-80
2024/03/31 20:14:09;;;;;;;;;;;;;;;5.78;100.00;97686.97;4932878;29;19927;-81
2024/03/31 20:16:37;;;;;;;;;;;;;;;5.72;100.00;97689.94;4932736;29;20006;-82
2024/03/31 20:19:03;;;;;;;;;;;;;;;5.72;100.00;97689.13;4914245;29;19929;-83
2024/03/31 20:21:28;;;;;;;;;;;;;;;5.78;100.00;97679.09;4931149;29;20531;-85
2024/03/31 20:23:53;;;;;;;;;;;;;;;5.73;100.00;97693.44;4916784;29;19919;-86
2024/03/31 20:26:18;;;;;;;;;;;;;;;5.82;100.00;97698.16;4933905;29;19930;-83
2024/03/31 20:28:44;;;;;;;;;;;;;;;5.82;100.00;97678.00;4931157;29;19922;-87
2024/03/31 20:31:09;;;;;;;;;;;;;;;5.78;100.00;97684.34;4914761;29;19927;-88
2024/03/31 20:33:35;;;;;;;;;;;;;;;5.82;100.00;97690.28;4915290;29;19962;-85
2024/03/31 20:36:01;;;;;;;;;;;;;;;6.25;100.00;97681.72;4934337;29;19930;-84
2024/03/31 20:38:26;;;;;;;;;;;;;;;6.20;100.00;97668.84;4936172;29;19938;-83
2024/03/31 20:40:55;;;;;;;;;;;;;;;6.03;100.00;97671.63;4936893;29;20084;-82
2024/03/31 20:43:20;;;;;;;;;;;;;;;5.92;100.00;97667.81;4934828;29;19923;-87
2024/03/31 20:45:52;;;;;;;;;;;;;;;5.97;100.00;97659.69;4933501;29;19915;-82
2024/03/31 20:48:20;;;;;;;;;;;;;;;5.91;100.00;97674.00;4936892;29;20037;-88
2024/03/31 20:50:52;;;;;;;;;;;;;;;5.91;100.00;97675.78;4919911;29;20351;-83
2024/03/31 20:53:20;;;;;;;;;;;;;;;5.95;100.00;97664.13;4936520;29;19918;-87
2024/03/31 20:56:01;;;;;;;;;;;;;;;5.94;100.00;97646.69;4930283;29;19931;-82
2024/03/31 20:58:28;;;;;;;;;;;;;;;5.97;100.00;97636.03;4935697;29;20363;-87
2024/03/31 21:01:00;;;;;;;;;;;;;;;6.01;100.00;97634.91;4934934;29;19927;-82
2024/03/31 21:03:25;;;;;;;;;;;;;;;6.02;100.00;97633.13;4936825;29;19923;-83
2024/03/31 21:06:04;;;;;;;;;;;;;;;5.94;100.00;97626.50;4936822;29;20312;-84
2024/03/31 21:08:30;;;;;;;;;;;;;;;6.03;100.00;97621.66;4936512;29;19923;-84
2024/03/31 21:11:08;;;;;;;;;;;;;;;5.98;100.00;97611.41;4936430;29;19930;-84
2024/03/31 21:13:34;;;;;;;;;;;;;;;6.05;100.00;97615.38;4932763;29;20024;-80
2024/03/31 21:15:59;;;;;;;;;;;;;;;6.03;100.00;97613.78;4935007;29;19923;-87
2024/03/31 21:18:24;;;;;;;;;;;;;;;5.99;100.00;97611.31;4935877;29;20013;-87
2024/03/31 21:20:50;;;;;;;;;;;;;;;5.94;100.00;97608.09;4936748;29;19930;-85
2024/03/31 21:23:16;;;;;;;;;;;;;;;5.97;100.00;97605.31;4930425;29;19927;-83
2024/03/31 21:25:42;;;;;;;;;;;;;;;5.99;100.00;97607.88;4936518;29;19945;-87
2024/03/31 21:28:07;;;;;;;;;;;;;;;5.98;100.00;97595.66;4935309;29;20338;-86
2024/03/31 21:30:35;;;;;;;;;;;;;;;5.98;100.00;97593.00;4936307;29;20410;-89
2024/03/31 21:33:01;;;;;;;;;;;;;;;5.98;100.00;97596.50;4935146;29;20395;-90